sensor_id;sensor_type;location;lat;lon;timestamp;pressure;altitude;pressure_sealevel;temperature;humidity
9235;BME280;4652;42.716;23.218;2024-02-14T00:00:57;94495.13;;;5.07;72.48
9235;BME280;4652;42.716;23.218;2024-02-14T00:03:23;94495.97;;;5.12;72.29
9235;BME280;4652;42.716;23.218;2024-02-14T00:05:49;94492.81;;;5.05;72.22
9235;BME280;4652;42.716;23.218;2024-02-14T00:08:15;94497.19;;;5.05;71.89
9235;BME280;4652;42.716;23.218;2024-02-14T00:10:40;94498.75;;;5.06;71.76
9235;BME280;4652;42.716;23.218;2024-02-14T00:13:06;94492.53;;;5.02;72.35
9235;BME280;4652;42.716;23.218;2024-02-14T00:15:33;94505.41;;;5.02;71.87
9235;BME280;4652;42.716;23.218;2024-02-14T00:17:59;94501.03;;;5.02;72.57
9235;BME280;4652;42.716;23.218;2024-02-14T00:20:26;94507.72;;;5.03;73.76
9235;BME280;4652;42.716;23.218;2024-02-14T00:22:51;94511.81;;;4.99;72.31
9235;BME280;4652;42.716;23.218;2024-02-14T00:25:17;94513.84;;;4.97;72.48
9235;BME280;4652;42.716;23.218;2024-02-14T00:27:43;94509.97;;;4.95;72.80
9235;BME280;4652;42.716;23.218;2024-02-14T00:30:08;94507.44;;;5.00;72.83
9235;BME280;4652;42.716;23.218;2024-02-14T00:32:35;94505.13;;;4.98;72.26
9235;BME280;4652;42.716;23.218;2024-02-14T00:35:01;94513.44;;;4.83;73.43
9235;BME280;4652;42.716;23.218;2024-02-14T00:37:26;94516.78;;;4.84;72.27
9235;BME280;4652;42.716;23.218;2024-02-14T00:39:52;94507.81;;;4.86;73.24
9235;BME280;4652;42.716;23.218;2024-02-14T00:42:19;94512.25;;;4.91;72.98
9235;BME280;4652;42.716;23.218;2024-02-14T00:44:45;94508.34;;;4.88;72.71
9235;BME280;4652;42.716;23.218;2024-02-14T00:47:10;94512.00;;;4.93;73.75
9235;BME280;4652;42.716;23.218;2024-02-14T00:49:36;94502.75;;;4.97;73.12
9235;BME280;4652;42.716;23.218;2024-02-14T00:52:03;94508.09;;;4.90;73.60
9235;BME280;4652;42.716;23.218;2024-02-14T00:54:28;94503.63;;;4.80;74.17
9235;BME280;4652;42.716;23.218;2024-02-14T00:56:54;94502.19;;;4.89;72.83
9235;BME280;4652;42.716;23.218;2024-02-14T00:59:19;94510.75;;;4.95;72.35
9235;BME280;4652;42.716;23.218;2024-02-14T01:01:45;94513.50;;;4.88;72.12
9235;BME280;4652;42.716;23.218;2024-02-14T01:04:10;94511.41;;;4.85;72.95
9235;BME280;4652;42.716;23.218;2024-02-14T01:06:36;94509.84;;;4.84;73.93
9235;BME280;4652;42.716;23.218;2024-02-14T01:09:02;94512.59;;;4.78;73.70
9235;BME280;4652;42.716;23.218;2024-02-14T01:11:29;94511.94;;;4.87;72.55
9235;BME280;4652;42.716;23.218;2024-02-14T01:13:55;94517.56;;;4.84;73.73
9235;BME280;4652;42.716;23.218;2024-02-14T01:16:20;94520.47;;;4.88;73.20
9235;BME280;4652;42.716;23.218;2024-02-14T01:18:46;94517.63;;;4.89;73.31
9235;BME280;4652;42.716;23.218;2024-02-14T01:21:11;94518.22;;;4.97;72.85
9235;BME280;4652;42.716;23.218;2024-02-14T01:23:37;94523.38;;;4.97;71.39
9235;BME280;4652;42.716;23.218;2024-02-14T01:26:03;94525.91;;;4.91;71.95
9235;BME280;4652;42.716;23.218;2024-02-14T01:28:29;94526.41;;;4.94;72.21
9235;BME280;4652;42.716;23.218;2024-02-14T01:30:55;94526.91;;;4.90;73.01
9235;BME280;4652;42.716;23.218;2024-02-14T01:33:22;94535.09;;;4.87;72.44
9235;BME280;4652;42.716;23.218;2024-02-14T01:35:48;94527.38;;;4.87;72.05
9235;BME280;4652;42.716;23.218;2024-02-14T01:38:13;94522.78;;;4.89;72.04
9235;BME280;4652;42.716;23.218;2024-02-14T01:40:42;94522.00;;;4.89;72.90
9235;BME280;4652;42.716;23.218;2024-02-14T01:43:10;94517.16;;;4.93;73.01
9235;BME280;4652;42.716;23.218;2024-02-14T01:45:37;94514.00;;;4.85;72.17
9235;BME280;4652;42.716;23.218;2024-02-14T01:48:04;94521.91;;;4.79;71.56
9235;BME280;4652;42.716;23.218;2024-02-14T01:50:32;94512.59;;;4.78;71.18
9235;BME280;4652;42.716;23.218;2024-02-14T01:52:58;94517.22;;;4.76;72.52
9235;BME280;4652;42.716;23.218;2024-02-14T01:55:27;94520.78;;;4.75;72.64
9235;BME280;4652;42.716;23.218;2024-02-14T01:57:54;94512.56;;;4.73;71.77
9235;BME280;4652;42.716;23.218;2024-02-14T02:00:19;94515.00;;;4.84;71.14
9235;BME280;4652;42.716;23.218;2024-02-14T02:02:45;94515.00;;;4.84;71.60
9235;BME280;4652;42.716;23.218;2024-02-14T02:05:13;94512.59;;;4.78;71.25
9235;BME280;4652;42.716;23.218;2024-02-14T02:07:40;94512.97;;;4.86;70.51
9235;BME280;4652;42.716;23.218;2024-02-14T02:10:09;94525.25;;;4.79;71.28
9235;BME280;4652;42.716;23.218;2024-02-14T02:12:37;94521.16;;;4.83;71.43
9235;BME280;4652;42.716;23.218;2024-02-14T02:15:07;94524.47;;;4.79;71.57
9235;BME280;4652;42.716;23.218;2024-02-14T02:17:36;94523.50;;;4.85;71.07
9235;BME280;4652;42.716;23.218;2024-02-14T02:20:01;94527.81;;;4.79;71.64
9235;BME280;4652;42.716;23.218;2024-02-14T02:22:27;94525.53;;;4.83;71.50
9235;BME280;4652;42.716;23.218;2024-02-14T02:24:57;94527.75;;;4.74;71.79
9235;BME280;4652;42.716;23.218;2024-02-14T02:27:24;94533.75;;;4.80;70.88
9235;BME280;4652;42.716;23.218;2024-02-14T02:29:49;94539.19;;;4.83;71.61
9235;BME280;4652;42.716;23.218;2024-02-14T02:32:15;94540.72;;;4.84;72.30
9235;BME280;4652;42.716;23.218;2024-02-14T02:34:41;94543.16;;;4.91;71.44
9235;BME280;4652;42.716;23.218;2024-02-14T02:37:08;94544.34;;;4.83;71.48
9235;BME280;4652;42.716;23.218;2024-02-14T02:39:34;94547.16;;;4.82;71.38
9235;BME280;4652;42.716;23.218;2024-02-14T02:42:02;94552.78;;;4.79;70.67
9235;BME280;4652;42.716;23.218;2024-02-14T02:44:28;94557.81;;;4.90;70.57
9235;BME280;4652;42.716;23.218;2024-02-14T02:46:55;94560.84;;;4.87;70.53
9235;BME280;4652;42.716;23.218;2024-02-14T02:49:21;94560.38;;;4.90;71.14
9235;BME280;4652;42.716;23.218;2024-02-14T02:51:47;94557.28;;;4.88;71.06
9235;BME280;4652;42.716;23.218;2024-02-14T02:54:14;94560.38;;;4.90;70.97
9235;BME280;4652;42.716;23.218;2024-02-14T02:56:39;94564.16;;;4.83;71.07
9235;BME280;4652;42.716;23.218;2024-02-14T02:59:06;94564.53;;;4.91;71.07
9235;BME280;4652;42.716;23.218;2024-02-14T03:01:38;94562.44;;;4.88;70.82
9235;BME280;4652;42.716;23.218;2024-02-14T03:04:03;94559.50;;;4.80;71.76
9235;BME280;4652;42.716;23.218;2024-02-14T03:06:30;94574.34;;;4.95;70.62
9235;BME280;4652;42.716;23.218;2024-02-14T03:08:56;94577.88;;;4.88;70.92
9235;BME280;4652;42.716;23.218;2024-02-14T03:11:22;94578.84;;;4.82;71.09
9235;BME280;4652;42.716;23.218;2024-02-14T03:13:48;94579.31;;;4.79;70.78
9235;BME280;4652;42.716;23.218;2024-02-14T03:16:16;94582.97;;;4.83;70.71
9235;BME280;4652;42.716;23.218;2024-02-14T03:18:43;94581.72;;;4.86;71.13
9235;BME280;4652;42.716;23.218;2024-02-14T03:21:08;94582.97;;;4.83;69.80
9235;BME280;4652;42.716;23.218;2024-02-14T03:23:34;94588.66;;;4.85;71.04
9235;BME280;4652;42.716;23.218;2024-02-14T03:25:59;94586.56;;;4.82;70.42
9235;BME280;4652;42.716;23.218;2024-02-14T03:28:25;94590.47;;;4.85;70.50
9235;BME280;4652;42.716;23.218;2024-02-14T03:30:51;94588.09;;;4.83;70.19
9235;BME280;4652;42.716;23.218;2024-02-14T03:33:17;94595.94;;;4.94;69.51
9235;BME280;4652;42.716;23.218;2024-02-14T03:35:43;94593.63;;;4.92;68.54
9235;BME280;4652;42.716;23.218;2024-02-14T03:38:08;94610.34;;;4.89;69.59
9235;BME280;4652;42.716;23.218;2024-02-14T03:40:35;94608.41;;;4.80;69.00
9235;BME280;4652;42.716;23.218;2024-02-14T03:43:01;94610.38;;;4.73;69.83
9235;BME280;4652;42.716;23.218;2024-02-14T03:45:27;94601.25;;;4.65;70.27
9235;BME280;4652;42.716;23.218;2024-02-14T03:47:55;94607.88;;;4.61;70.58
9235;BME280;4652;42.716;23.218;2024-02-14T03:50:22;94610.25;;;4.62;70.13
9235;BME280;4652;42.716;23.218;2024-02-14T03:52:48;94614.13;;;4.65;69.68
9235;BME280;4652;42.716;23.218;2024-02-14T03:55:14;94613.47;;;4.53;70.29
9235;BME280;4652;42.716;23.218;2024-02-14T03:57:42;94606.97;;;4.50;70.43
9235;BME280;4652;42.716;23.218;2024-02-14T04:00:11;94609.38;;;4.57;70.09
9235;BME280;4652;42.716;23.218;2024-02-14T04:02:36;94612.91;;;4.51;70.33
9235;BME280;4652;42.716;23.218;2024-02-14T04:05:02;94612.81;;;4.45;70.00
9235;BME280;4652;42.716;23.218;2024-02-14T04:07:28;94625.00;;;4.50;70.43
9235;BME280;4652;42.716;23.218;2024-02-14T04:09:55;94618.47;;;4.42;70.60
9235;BME280;4652;42.716;23.218;2024-02-14T04:12:21;94620.78;;;4.44;70.32
9235;BME280;4652;42.716;23.218;2024-02-14T04:14:47;94619.00;;;4.44;71.05
9235;BME280;4652;42.716;23.218;2024-02-14T04:17:12;94628.81;;;4.48;70.05
9235;BME280;4652;42.716;23.218;2024-02-14T04:19:39;94625.94;;;4.44;70.86
9235;BME280;4652;42.716;23.218;2024-02-14T04:22:04;94633.91;;;4.42;70.41
9235;BME280;4652;42.716;23.218;2024-02-14T04:24:34;94633.91;;;4.42;71.08
9235;BME280;4652;42.716;23.218;2024-02-14T04:27:00;94640.59;;;4.43;70.97
9235;BME280;4652;42.716;23.218;2024-02-14T04:29:28;94634.69;;;4.43;70.45
9235;BME280;4652;42.716;23.218;2024-02-14T04:31:56;94639.50;;;4.39;71.63
9235;BME280;4652;42.716;23.218;2024-02-14T04:34:23;94642.09;;;4.39;71.10
9235;BME280;4652;42.716;23.218;2024-02-14T04:36:49;94639.50;;;4.39;70.88
9235;BME280;4652;42.716;23.218;2024-02-14T04:39:14;94645.66;;;4.38;71.21
9235;BME280;4652;42.716;23.218;2024-02-14T04:41:40;94639.97;;;4.36;70.80
9235;BME280;4652;42.716;23.218;2024-02-14T04:44:05;94641.06;;;4.40;72.18
9235;BME280;4652;42.716;23.218;2024-02-14T04:46:34;94651.41;;;4.45;71.46
9235;BME280;4652;42.716;23.218;2024-02-14T04:49:03;94645.81;;;4.49;71.26
9235;BME280;4652;42.716;23.218;2024-02-14T04:51:29;94648.53;;;4.42;70.32
9235;BME280;4652;42.716;23.218;2024-02-14T04:53:56;94644.88;;;4.38;70.88
9235;BME280;4652;42.716;23.218;2024-02-14T04:56:28;94655.56;;;4.47;72.19
9235;BME280;4652;42.716;23.218;2024-02-14T04:58:54;94656.34;;;4.30;71.68
9235;BME280;4652;42.716;23.218;2024-02-14T05:01:20;94657.53;;;4.39;71.74
9235;BME280;4652;42.716;23.218;2024-02-14T05:03:46;94667.25;;;4.37;71.32
9235;BME280;4652;42.716;23.218;2024-02-14T05:06:11;94663.97;;;4.25;71.68
9235;BME280;4652;42.716;23.218;2024-02-14T05:08:37;94664.75;;;4.26;71.44
9235;BME280;4652;42.716;23.218;2024-02-14T05:11:03;94664.53;;;4.27;70.37
9235;BME280;4652;42.716;23.218;2024-02-14T05:13:30;94670.44;;;4.28;70.78
9235;BME280;4652;42.716;23.218;2024-02-14T05:15:56;94671.63;;;4.20;70.81
9235;BME280;4652;42.716;23.218;2024-02-14T05:18:22;94680.66;;;4.22;70.42
9235;BME280;4652;42.716;23.218;2024-02-14T05:20:48;94671.22;;;4.28;70.59
9235;BME280;4652;42.716;23.218;2024-02-14T05:23:14;94685.13;;;4.27;71.14
9235;BME280;4652;42.716;23.218;2024-02-14T05:25:43;94680.34;;;4.19;71.72
9235;BME280;4652;42.716;23.218;2024-02-14T05:28:09;94692.22;;;4.20;70.42
9235;BME280;4652;42.716;23.218;2024-02-14T05:30:39;94688.97;;;4.13;72.36
9235;BME280;4652;42.716;23.218;2024-02-14T05:33:06;94699.94;;;4.20;71.69
9235;BME280;4652;42.716;23.218;2024-02-14T05:35:32;94702.75;;;4.07;71.21
9235;BME280;4652;42.716;23.218;2024-02-14T05:37:59;94704.97;;;4.15;71.88
9235;BME280;4652;42.716;23.218;2024-02-14T05:40:26;94702.00;;;4.23;71.67
9235;BME280;4652;42.716;23.218;2024-02-14T05:42:51;94701.94;;;4.18;71.48
9235;BME280;4652;42.716;23.218;2024-02-14T05:45:17;94710.66;;;4.17;70.80
9235;BME280;4652;42.716;23.218;2024-02-14T05:47:43;94710.25;;;4.08;71.12
9235;BME280;4652;42.716;23.218;2024-02-14T05:50:09;94717.50;;;4.11;70.97
9235;BME280;4652;42.716;23.218;2024-02-14T05:52:37;94715.81;;;4.17;70.73
9235;BME280;4652;42.716;23.218;2024-02-14T05:55:03;94727.66;;;4.18;69.28
9235;BME280;4652;42.716;23.218;2024-02-14T05:57:30;94726.25;;;4.10;69.46
9235;BME280;4652;42.716;23.218;2024-02-14T05:59:56;94731.25;;;4.17;69.16
9235;BME280;4652;42.716;23.218;2024-02-14T06:02:21;94728.56;;;4.12;69.34
9235;BME280;4652;42.716;23.218;2024-02-14T06:04:47;94733.69;;;4.24;70.05
9235;BME280;4652;42.716;23.218;2024-02-14T06:07:12;94744.19;;;4.22;69.66
9235;BME280;4652;42.716;23.218;2024-02-14T06:09:38;94745.28;;;4.26;68.93
9235;BME280;4652;42.716;23.218;2024-02-14T06:12:04;94747.00;;;4.20;68.73
9235;BME280;4652;42.716;23.218;2024-02-14T06:14:30;94755.38;;;4.16;67.85
9235;BME280;4652;42.716;23.218;2024-02-14T06:16:59;94754.72;;;4.20;67.86
9235;BME280;4652;42.716;23.218;2024-02-14T06:19:26;94751.38;;;4.20;68.69
9235;BME280;4652;42.716;23.218;2024-02-14T06:21:51;94755.63;;;4.14;68.63
9235;BME280;4652;42.716;23.218;2024-02-14T06:24:17;94769.91;;;4.22;69.46
9235;BME280;4652;42.716;23.218;2024-02-14T06:26:45;94767.34;;;4.22;68.10
9235;BME280;4652;42.716;23.218;2024-02-14T06:29:10;94777.72;;;4.27;69.40
9235;BME280;4652;42.716;23.218;2024-02-14T06:31:36;94769.53;;;4.30;67.66
9235;BME280;4652;42.716;23.218;2024-02-14T06:34:01;94779.59;;;4.32;68.32
9235;BME280;4652;42.716;23.218;2024-02-14T06:36:27;94777.44;;;4.40;68.27
9235;BME280;4652;42.716;23.218;2024-02-14T06:38:53;94777.84;;;4.49;67.62
9235;BME280;4652;42.716;23.218;2024-02-14T06:41:19;94785.22;;;4.45;66.12
9235;BME280;4652;42.716;23.218;2024-02-14T06:43:46;94788.47;;;4.53;67.21
9235;BME280;4652;42.716;23.218;2024-02-14T06:46:11;94785.56;;;4.49;67.16
9235;BME280;4652;42.716;23.218;2024-02-14T06:48:37;94788.34;;;4.48;65.41
9235;BME280;4652;42.716;23.218;2024-02-14T06:51:06;94791.34;;;4.56;65.88
9235;BME280;4652;42.716;23.218;2024-02-14T06:53:36;94788.69;;;4.51;66.86
9235;BME280;4652;42.716;23.218;2024-02-14T06:56:07;94795.78;;;4.61;65.92
9235;BME280;4652;42.716;23.218;2024-02-14T06:58:32;94795.41;;;4.52;65.82
9235;BME280;4652;42.716;23.218;2024-02-14T07:00:59;94806.41;;;4.64;65.77
9235;BME280;4652;42.716;23.218;2024-02-14T07:03:26;94800.25;;;4.65;66.05
9235;BME280;4652;42.716;23.218;2024-02-14T07:05:54;94808.97;;;4.64;65.99
9235;BME280;4652;42.716;23.218;2024-02-14T07:08:19;94812.25;;;4.60;65.25
9235;BME280;4652;42.716;23.218;2024-02-14T07:10:45;94822.53;;;4.60;65.43
9235;BME280;4652;42.716;23.218;2024-02-14T07:13:11;94825.53;;;4.68;65.47
9235;BME280;4652;42.716;23.218;2024-02-14T07:15:37;94818.34;;;4.71;63.98
9235;BME280;4652;42.716;23.218;2024-02-14T07:18:02;94837.59;;;4.68;65.28
9235;BME280;4652;42.716;23.218;2024-02-14T07:20:29;94839.25;;;4.74;65.09
9235;BME280;4652;42.716;23.218;2024-02-14T07:22:55;94834.88;;;4.75;65.51
9235;BME280;4652;42.716;23.218;2024-02-14T07:25:22;94834.88;;;4.75;64.46
9235;BME280;4652;42.716;23.218;2024-02-14T07:27:49;94844.09;;;4.87;65.22
9235;BME280;4652;42.716;23.218;2024-02-14T07:30:34;94853.47;;;4.77;64.81
9235;BME280;4652;42.716;23.218;2024-02-14T07:33:02;94851.31;;;4.85;65.48
9235;BME280;4652;42.716;23.218;2024-02-14T07:35:27;94845.13;;;4.86;65.11
9235;BME280;4652;42.716;23.218;2024-02-14T07:37:54;94857.69;;;5.00;64.29
9235;BME280;4652;42.716;23.218;2024-02-14T07:40:21;94856.06;;;4.94;65.18
9235;BME280;4652;42.716;23.218;2024-02-14T07:42:47;94848.97;;;5.01;66.00
9235;BME280;4652;42.716;23.218;2024-02-14T07:45:13;94849.41;;;4.81;64.34
9235;BME280;4652;42.716;23.218;2024-02-14T07:47:39;94849.34;;;4.93;64.32
9235;BME280;4652;42.716;23.218;2024-02-14T07:50:06;94858.16;;;4.97;64.85
9235;BME280;4652;42.716;23.218;2024-02-14T07:52:32;94858.47;;;4.83;64.78
9235;BME280;4652;42.716;23.218;2024-02-14T07:54:59;94858.09;;;4.91;64.47
9235;BME280;4652;42.716;23.218;2024-02-14T07:57:25;94859.97;;;4.96;65.08
9235;BME280;4652;42.716;23.218;2024-02-14T07:59:51;94850.53;;;5.02;65.00
9235;BME280;4652;42.716;23.218;2024-02-14T08:02:20;94852.38;;;4.89;64.27
9235;BME280;4652;42.716;23.218;2024-02-14T08:07:56;94858.63;;;4.77;64.98
9235;BME280;4652;42.716;23.218;2024-02-14T08:10:22;94861.75;;;4.79;64.83
9235;BME280;4652;42.716;23.218;2024-02-14T08:12:48;94862.94;;;4.88;65.10
9235;BME280;4652;42.716;23.218;2024-02-14T08:15:14;94864.00;;;4.75;63.72
9235;BME280;4652;42.716;23.218;2024-02-14T08:17:39;94866.59;;;4.75;64.21
9235;BME280;4652;42.716;23.218;2024-02-14T08:20:05;94863.81;;;4.65;64.01
9235;BME280;4652;42.716;23.218;2024-02-14T08:22:31;94865.91;;;4.68;63.62
9235;BME280;4652;42.716;23.218;2024-02-14T08:24:58;94875.75;;;4.71;64.80
9235;BME280;4652;42.716;23.218;2024-02-14T08:27:24;94878.25;;;4.66;65.17
9235;BME280;4652;42.716;23.218;2024-02-14T08:29:49;94870.75;;;4.64;65.36
9235;BME280;4652;42.716;23.218;2024-02-14T08:32:15;94888.56;;;4.66;64.72
9235;BME280;4652;42.716;23.218;2024-02-14T08:34:40;94891.00;;;4.73;65.34
9235;BME280;4652;42.716;23.218;2024-02-14T08:37:06;94891.03;;;4.61;63.83
9235;BME280;4652;42.716;23.218;2024-02-14T08:39:33;94886.34;;;4.58;65.09
9235;BME280;4652;42.716;23.218;2024-02-14T08:41:59;94892.50;;;4.57;64.32
9235;BME280;4652;42.716;23.218;2024-02-14T08:44:28;94908.06;;;4.62;63.97
9235;BME280;4652;42.716;23.218;2024-02-14T08:46:54;94894.94;;;4.63;65.52
9235;BME280;4652;42.716;23.218;2024-02-14T08:49:20;94899.31;;;4.63;64.37
9235;BME280;4652;42.716;23.218;2024-02-14T08:51:45;94894.75;;;4.53;64.91
9235;BME280;4652;42.716;23.218;2024-02-14T08:54:12;94894.31;;;4.44;63.30
9235;BME280;4652;42.716;23.218;2024-02-14T08:56:41;94900.81;;;4.47;66.28
9235;BME280;4652;42.716;23.218;2024-02-14T08:59:07;94900.78;;;4.59;64.22
9235;BME280;4652;42.716;23.218;2024-02-14T09:01:32;94911.16;;;4.64;63.70
9235;BME280;4652;42.716;23.218;2024-02-14T09:03:58;94905.41;;;4.74;64.33
9235;BME280;4652;42.716;23.218;2024-02-14T09:06:24;94908.75;;;4.74;64.81
9235;BME280;4652;42.716;23.218;2024-02-14T09:08:52;94914.38;;;4.71;63.45
9235;BME280;4652;42.716;23.218;2024-02-14T09:11:19;94930.09;;;4.58;64.32
9235;BME280;4652;42.716;23.218;2024-02-14T09:13:45;94918.06;;;4.47;64.96
9235;BME280;4652;42.716;23.218;2024-02-14T09:16:13;94921.47;;;4.64;65.34
9235;BME280;4652;42.716;23.218;2024-02-14T09:18:40;94922.69;;;4.61;65.51
9235;BME280;4652;42.716;23.218;2024-02-14T09:21:06;94921.78;;;4.67;63.48
9235;BME280;4652;42.716;23.218;2024-02-14T09:23:32;94922.22;;;4.64;63.80
9235;BME280;4652;42.716;23.218;2024-02-14T09:25:59;94928.44;;;4.52;63.23
9235;BME280;4652;42.716;23.218;2024-02-14T09:28:24;94924.03;;;4.64;64.18
9235;BME280;4652;42.716;23.218;2024-02-14T09:30:53;94915.19;;;4.72;62.11
9235;BME280;4652;42.716;23.218;2024-02-14T09:33:20;94919.72;;;4.81;64.09
9235;BME280;4652;42.716;23.218;2024-02-14T09:35:45;94926.16;;;4.96;63.49
9235;BME280;4652;42.716;23.218;2024-02-14T09:38:13;94930.06;;;4.98;61.99
9235;BME280;4652;42.716;23.218;2024-02-14T09:40:42;94936.34;;;4.90;61.79
9235;BME280;4652;42.716;23.218;2024-02-14T09:45:58;94935.22;;;4.98;61.61
9235;BME280;4652;42.716;23.218;2024-02-14T09:48:24;94934.38;;;4.81;62.62
9235;BME280;4652;42.716;23.218;2024-02-14T09:50:52;94937.06;;;4.86;61.67
9235;BME280;4652;42.716;23.218;2024-02-14T09:53:19;94935.97;;;4.82;62.32
9235;BME280;4652;42.716;23.218;2024-02-14T09:55:49;94936.16;;;4.80;62.33
9235;BME280;4652;42.716;23.218;2024-02-14T09:58:17;94930.75;;;4.94;62.08
9235;BME280;4652;42.716;23.218;2024-02-14T10:00:43;94929.91;;;5.05;62.41
9235;BME280;4652;42.716;23.218;2024-02-14T10:03:09;94934.16;;;5.28;61.80
9235;BME280;4652;42.716;23.218;2024-02-14T10:05:35;94922.47;;;5.37;61.45
9235;BME280;4652;42.716;23.218;2024-02-14T10:08:00;94926.66;;;5.26;60.15
9235;BME280;4652;42.716;23.218;2024-02-14T10:10:27;94925.88;;;5.26;60.26
9235;BME280;4652;42.716;23.218;2024-02-14T10:12:56;94925.72;;;5.15;60.93
9235;BME280;4652;42.716;23.218;2024-02-14T10:15:22;94925.97;;;5.31;59.86
9235;BME280;4652;42.716;23.218;2024-02-14T10:17:47;94930.88;;;5.32;60.65
9235;BME280;4652;42.716;23.218;2024-02-14T10:20:17;94929.56;;;5.30;60.90
9235;BME280;4652;42.716;23.218;2024-02-14T10:22:43;94931.66;;;5.16;61.06
9235;BME280;4652;42.716;23.218;2024-02-14T10:25:10;94936.75;;;5.28;60.13
9235;BME280;4652;42.716;23.218;2024-02-14T10:27:43;94934.41;;;5.43;60.90
9235;BME280;4652;42.716;23.218;2024-02-14T10:30:20;94932.38;;;5.28;59.74
9235;BME280;4652;42.716;23.218;2024-02-14T10:32:47;94934.56;;;5.53;59.72
9235;BME280;4652;42.716;23.218;2024-02-14T10:35:15;94926.59;;;5.55;60.30
9235;BME280;4652;42.716;23.218;2024-02-14T10:37:42;94925.91;;;5.59;59.60
9235;BME280;4652;42.716;23.218;2024-02-14T10:40:10;94917.69;;;5.63;58.75
9235;BME280;4652;42.716;23.218;2024-02-14T10:42:37;94928.94;;;5.73;58.98
9235;BME280;4652;42.716;23.218;2024-02-14T10:45:04;94925.13;;;5.93;59.15
9235;BME280;4652;42.716;23.218;2024-02-14T10:47:33;94930.34;;;5.98;58.23
9235;BME280;4652;42.716;23.218;2024-02-14T10:50:02;94920.25;;;5.79;58.48
9235;BME280;4652;42.716;23.218;2024-02-14T10:52:31;94926.34;;;5.73;57.55
9235;BME280;4652;42.716;23.218;2024-02-14T10:54:59;94919.09;;;5.70;58.76
9235;BME280;4652;42.716;23.218;2024-02-14T10:57:28;94925.03;;;5.71;58.41
9235;BME280;4652;42.716;23.218;2024-02-14T10:59:55;94927.16;;;5.40;58.96
9235;BME280;4652;42.716;23.218;2024-02-14T11:02:23;94918.03;;;5.49;59.24
9235;BME280;4652;42.716;23.218;2024-02-14T11:04:49;94924.25;;;5.53;60.46
9235;BME280;4652;42.716;23.218;2024-02-14T11:07:20;94925.81;;;5.54;59.36
9235;BME280;4652;42.716;23.218;2024-02-14T11:10:00;94922.69;;;5.69;60.41
9235;BME280;4652;42.716;23.218;2024-02-14T11:12:35;94918.94;;;5.60;60.48
9235;BME280;4652;42.716;23.218;2024-02-14T11:15:23;94922.22;;;5.55;59.50
9235;BME280;4652;42.716;23.218;2024-02-14T11:17:50;94923.50;;;5.53;59.79
9235;BME280;4652;42.716;23.218;2024-02-14T11:20:21;94924.47;;;5.52;60.55
9235;BME280;4652;42.716;23.218;2024-02-14T11:23:01;94919.88;;;5.37;60.23
9235;BME280;4652;42.716;23.218;2024-02-14T11:25:31;94924.03;;;5.38;60.46
9235;BME280;4652;42.716;23.218;2024-02-14T11:27:58;94931.81;;;5.26;60.58
9235;BME280;4652;42.716;23.218;2024-02-14T11:30:34;94929.09;;;5.33;59.62
9235;BME280;4652;42.716;23.218;2024-02-14T11:33:24;94931.34;;;5.29;61.14
9235;BME280;4652;42.716;23.218;2024-02-14T11:35:52;94924.88;;;5.27;60.54
9235;BME280;4652;42.716;23.218;2024-02-14T11:38:23;94923.09;;;5.27;60.16
9235;BME280;4652;42.716;23.218;2024-02-14T11:40:54;94917.69;;;5.29;60.26
9235;BME280;4652;42.716;23.218;2024-02-14T11:43:22;94929.84;;;5.17;59.02
9235;BME280;4652;42.716;23.218;2024-02-14T11:45:49;94928.44;;;5.09;60.12
9235;BME280;4652;42.716;23.218;2024-02-14T11:48:16;94927.06;;;5.18;61.24
9235;BME280;4652;42.716;23.218;2024-02-14T11:50:44;94927.41;;;5.10;60.53
9235;BME280;4652;42.716;23.218;2024-02-14T11:53:11;94934.00;;;5.18;60.50
9235;BME280;4652;42.716;23.218;2024-02-14T11:55:40;94931.75;;;5.21;61.59
9235;BME280;4652;42.716;23.218;2024-02-14T12:00:42;94925.81;;;5.37;61.73
9235;BME280;4652;42.716;23.218;2024-02-14T12:03:20;94918.25;;;5.48;59.94
9235;BME280;4652;42.716;23.218;2024-02-14T12:05:50;94918.66;;;5.40;60.26
9235;BME280;4652;42.716;23.218;2024-02-14T12:08:17;94916.44;;;5.31;60.32
9235;BME280;4652;42.716;23.218;2024-02-14T12:10:47;94922.16;;;5.33;60.92
9235;BME280;4652;42.716;23.218;2024-02-14T12:13:17;94925.81;;;5.37;59.83
9235;BME280;4652;42.716;23.218;2024-02-14T12:15:53;94924.78;;;5.38;59.48
9235;BME280;4652;42.716;23.218;2024-02-14T12:18:20;94923.66;;;5.46;58.71
9235;BME280;4652;42.716;23.218;2024-02-14T12:20:47;94918.66;;;5.40;58.58
9235;BME280;4652;42.716;23.218;2024-02-14T12:23:16;94918.09;;;5.37;58.43
9235;BME280;4652;42.716;23.218;2024-02-14T12:25:47;94909.56;;;5.37;58.79
9235;BME280;4652;42.716;23.218;2024-02-14T12:28:18;94914.13;;;5.30;58.49
9235;BME280;4652;42.716;23.218;2024-02-14T12:30:51;94911.53;;;5.30;59.32
9235;BME280;4652;42.716;23.218;2024-02-14T12:33:22;94914.47;;;5.38;58.83
9235;BME280;4652;42.716;23.218;2024-02-14T12:35:54;94912.00;;;5.44;57.86
9235;BME280;4652;42.716;23.218;2024-02-14T12:38:23;94907.88;;;5.43;58.38
9235;BME280;4652;42.716;23.218;2024-02-14T12:40:50;94904.66;;;5.52;58.34
9235;BME280;4652;42.716;23.218;2024-02-14T12:43:19;94902.78;;;5.48;57.91
9235;BME280;4652;42.716;23.218;2024-02-14T12:45:46;94907.88;;;5.43;58.78
9235;BME280;4652;42.716;23.218;2024-02-14T12:48:13;94903.84;;;5.52;57.86
9235;BME280;4652;42.716;23.218;2024-02-14T12:50:41;94901.75;;;5.49;57.31
9235;BME280;4652;42.716;23.218;2024-02-14T12:53:14;94908.53;;;5.55;57.56
9235;BME280;4652;42.716;23.218;2024-02-14T12:55:40;94905.50;;;5.58;58.06
9235;BME280;4652;42.716;23.218;2024-02-14T12:58:06;94911.44;;;5.58;59.54
9235;BME280;4652;42.716;23.218;2024-02-14T13:00:33;94913.00;;;5.59;58.26
9235;BME280;4652;42.716;23.218;2024-02-14T13:03:00;94913.69;;;5.55;57.24
9235;BME280;4652;42.716;23.218;2024-02-14T13:05:27;94914.72;;;5.54;57.65
9235;BME280;4652;42.716;23.218;2024-02-14T13:07:53;94917.88;;;5.56;56.86
9235;BME280;4652;42.716;23.218;2024-02-14T13:10:20;94911.91;;;5.55;58.01
9235;BME280;4652;42.716;23.218;2024-02-14T13:12:46;94920.50;;;5.61;57.56
9235;BME280;4652;42.716;23.218;2024-02-14T13:15:12;94917.63;;;5.57;58.54
9235;BME280;4652;42.716;23.218;2024-02-14T13:17:38;94916.69;;;5.64;57.78
9235;BME280;4652;42.716;23.218;2024-02-14T13:20:05;94920.66;;;5.71;58.09
9235;BME280;4652;42.716;23.218;2024-02-14T13:22:32;94927.28;;;5.84;57.05
9235;BME280;4652;42.716;23.218;2024-02-14T13:24:58;94924.88;;;5.77;58.09
9235;BME280;4652;42.716;23.218;2024-02-14T13:27:26;94920.94;;;5.75;57.69
9235;BME280;4652;42.716;23.218;2024-02-14T13:29:53;94921.81;;;5.80;56.96